Nashville, Tennessee
Traffic Map
Current Weather Conditions
Nashville, Tennessee
Broken Clouds
Broken Clouds
71°
Feels Like: 71°
Wind Chill: 71° Ceiling: 15000
Heat Index: 71° Visibility: 10mi
Dew Point: 53° Wind: 14mph
Humidity: 53% Direction: 170° (S)
Pressure: 30.16in Gusts: 0mph
Raw Report DataKBNA 242353Z 17012KT 10SM FEW050 BKN150 BKN220 22/12 A3016 RMK AO2 SLP209 T02170117 10239 20217 58011
Traffic Incident Summary
Active as of:
Severity:
Category:
InformationThere was an issue retrieving the traffic information for this location. Please try a different location or try again shortly.
Advertisements
Track Severe Weather on mobile